Time;durP1;ratioP1;P1;durP2;ratioP2;P2;SDS_P1;SDS_P2;PMS_P1;PMS_P2;Temp;Humidity;BMP_temperature;BMP_pressure;BME280_temperature;BME280_humidity;BME280_pressure;Samples;Min_cycle;Max_cycle;Signal;HPM_P1;HPM_P2
2024/03/23 00:01:46;;;;;;;9.13;7.30;;;;;;;12.68;55.55;95676.19;4971062;28;20445;-67
2024/03/23 00:04:13;;;;;;;14.37;7.40;;;;;;;12.60;55.29;95667.94;4970731;28;20456;-68
2024/03/23 00:06:39;;;;;;;12.37;6.53;;;;;;;12.55;55.33;95662.97;4969143;28;20413;-68
2024/03/23 00:09:08;;;;;;;7.60;6.90;;;;;;;12.59;54.62;95666.22;4961078;28;20461;-69
2024/03/23 00:11:38;;;;;;;7.80;7.00;;;;;;;12.62;54.72;95666.06;4968110;28;20839;-67
2024/03/23 00:14:04;;;;;;;8.57;7.67;;;;;;;12.59;54.88;95651.31;4967864;28;20416;-67
2024/03/23 00:16:31;;;;;;;8.43;7.50;;;;;;;12.41;55.14;95644.56;4967933;28;21244;-69
2024/03/23 00:19:01;;;;;;;8.43;7.73;;;;;;;12.48;55.07;95649.34;4966737;28;21185;-68
2024/03/23 00:21:27;;;;;;;7.80;7.00;;;;;;;12.39;55.54;95643.81;4967628;28;21047;-68
2024/03/23 00:23:53;;;;;;;10.40;6.70;;;;;;;12.33;54.95;95639.81;4967103;28;20560;-67
2024/03/23 00:26:20;;;;;;;8.00;7.23;;;;;;;12.25;55.29;95645.53;4967815;28;20423;-67
2024/03/23 00:28:46;;;;;;;8.67;7.80;;;;;;;12.34;54.68;95641.47;4967446;28;20444;-67
2024/03/23 00:31:13;;;;;;;14.33;8.83;;;;;;;12.39;55.10;95631.50;4959156;28;20499;-67
2024/03/23 00:33:39;;;;;;;8.63;7.30;;;;;;;12.39;54.93;95633.31;4967459;28;20503;-69
2024/03/23 00:36:06;;;;;;;8.47;7.60;;;;;;;12.33;55.14;95624.03;4999133;28;20445;-69
2024/03/23 00:38:32;;;;;;;11.00;7.70;;;;;;;12.26;55.11;95628.81;4967677;28;20459;-68
2024/03/23 00:40:59;;;;;;;12.70;7.07;;;;;;;12.29;55.17;95627.78;4967345;28;20441;-68
2024/03/23 00:43:28;;;;;;;10.07;7.67;;;;;;;12.20;56.09;95621.28;4968208;28;20463;-68
2024/03/23 00:45:54;;;;;;;8.07;6.73;;;;;;;12.31;55.13;95615.38;4968541;28;20413;-68
2024/03/23 00:48:21;;;;;;;10.03;8.30;;;;;;;12.28;55.03;95620.81;4962629;28;21146;-67
2024/03/23 00:50:47;;;;;;;9.23;6.60;;;;;;;12.19;55.54;95613.50;4965292;28;20425;-67
2024/03/23 00:53:14;;;;;;;8.53;6.80;;;;;;;12.21;55.38;95608.97;4968222;28;20425;-65
2024/03/23 00:55:40;;;;;;;7.23;6.53;;;;;;;12.31;54.55;95612.75;4967563;28;20452;-67
2024/03/23 00:58:06;;;;;;;7.77;6.60;;;;;;;12.24;54.90;95609.66;4968179;28;20429;-67
2024/03/23 01:00:31;;;;;;;8.03;7.23;;;;;;;12.18;55.00;95609.19;4968376;28;20616;-67
2024/03/23 01:02:56;;;;;;;7.40;6.27;;;;;;;12.16;54.96;95601.38;4964325;28;20178;-67
2024/03/23 01:05:22;;;;;;;8.90;6.63;;;;;;;12.18;55.21;95594.25;4968223;28;20197;-67
2024/03/23 01:07:47;;;;;;;10.80;6.90;;;;;;;12.04;54.68;95591.63;4968598;28;20170;-68
2024/03/23 01:10:12;;;;;;;7.30;6.60;;;;;;;12.11;54.76;95582.41;4967923;28;20165;-66
2024/03/23 01:12:38;;;;;;;7.30;6.60;;;;;;;11.80;55.85;95584.31;4967150;28;20662;-67
2024/03/23 01:15:04;;;;;;;6.53;5.93;;;;;;;11.94;54.58;95574.75;4968299;28;20173;-68
2024/03/23 01:17:29;;;;;;;7.30;6.63;;;;;;;11.93;55.10;95579.19;4998833;28;20588;-67
2024/03/23 01:19:54;;;;;;;7.50;6.70;;;;;;;11.95;54.70;95579.94;4967386;28;20189;-67
2024/03/23 01:22:20;;;;;;;8.47;5.30;;;;;;;11.64;55.39;95573.03;4967635;28;20174;-69
2024/03/23 01:24:45;;;;;;;7.03;6.43;;;;;;;11.88;54.85;95564.63;4966688;28;20283;-67
2024/03/23 01:27:11;;;;;;;10.17;6.40;;;;;;;11.95;54.91;95577.31;4966680;28;20324;-68
2024/03/23 01:29:36;;;;;;;8.07;6.37;;;;;;;11.80;54.68;95573.78;4967329;28;20723;-69
2024/03/23 01:32:01;;;;;;;6.50;5.90;;;;;;;11.67;55.04;95578.13;4967398;28;20180;-68
2024/03/23 01:34:27;;;;;;;8.30;6.30;;;;;;;11.72;55.24;95570.81;4967885;28;20170;-70
2024/03/23 01:36:53;;;;;;;8.17;5.73;;;;;;;11.67;54.89;95567.63;4972481;28;20192;-69
2024/03/23 01:39:18;;;;;;;6.70;6.10;;;;;;;11.63;56.15;95566.94;4976802;28;20469;-69
2024/03/23 01:41:44;;;;;;;9.00;6.03;;;;;;;11.62;56.06;95560.03;4968920;28;20282;-69
2024/03/23 01:44:10;;;;;;;8.20;5.60;;;;;;;11.54;55.58;95559.63;4972435;28;20202;-67
2024/03/23 01:46:37;;;;;;;8.00;5.50;;;;;;;11.48;56.08;95556.53;4974555;28;20171;-67
2024/03/23 01:49:04;;;;;;;8.23;7.40;;;;;;;11.49;55.96;95548.56;4978901;28;20619;-67
2024/03/23 01:51:32;;;;;;;8.77;6.43;;;;;;;11.51;56.40;95556.34;4994574;28;20412;-70
2024/03/23 01:54:00;;;;;;;7.43;6.67;;;;;;;11.47;56.60;95550.44;4984212;28;20763;-68
2024/03/23 01:56:26;;;;;;;7.20;6.50;;;;;;;11.46;56.47;95543.50;4975421;28;20783;-66
2024/03/23 01:58:51;;;;;;;8.20;7.50;;;;;;;11.38;57.24;95543.09;4974170;28;20429;-69
2024/03/23 02:01:17;;;;;;;8.00;7.20;;;;;;;11.41;57.04;95540.31;4973779;28;20162;-69
2024/03/23 02:03:43;;;;;;;12.73;7.13;;;;;;;11.36;56.86;95527.47;4957820;28;20687;-66
2024/03/23 02:06:08;;;;;;;7.93;7.13;;;;;;;11.22;57.39;95536.16;4969064;28;20711;-68
2024/03/23 02:08:34;;;;;;;9.97;8.20;;;;;;;11.22;57.45;95535.34;4970236;28;20513;-67
2024/03/23 02:10:59;;;;;;;8.23;7.43;;;;;;;11.22;58.06;95536.16;4969989;28;20288;-68
2024/03/23 02:13:25;;;;;;;9.10;7.30;;;;;;;11.16;58.23;95528.66;4968938;28;20726;-70
2024/03/23 02:15:50;;;;;;;8.30;7.40;;;;;;;11.33;57.52;95521.53;5001103;28;20181;-67
2024/03/23 02:18:16;;;;;;;8.00;7.23;;;;;;;11.13;58.13;95515.72;4967741;28;20764;-65
2024/03/23 02:20:41;;;;;;;10.60;6.73;;;;;;;11.13;58.40;95512.25;4950735;28;20186;-66
2024/03/23 02:23:14;;;;;;;7.83;6.83;;;;;;;11.19;58.14;95507.44;4950227;28;20540;-66
2024/03/23 02:25:40;;;;;;;8.70;7.20;;;;;;;11.06;58.12;95506.53;4953422;28;20178;-70
2024/03/23 02:28:05;;;;;;;10.00;8.00;;;;;;;11.03;58.69;95501.44;4966620;28;20463;-69
2024/03/23 02:30:30;;;;;;;7.47;6.70;;;;;;;11.14;58.02;95498.16;4969221;28;20637;-68
2024/03/23 02:32:56;;;;;;;7.20;6.50;;;;;;;11.12;58.50;95502.66;4969227;28;20596;-68
2024/03/23 02:35:21;;;;;;;6.73;6.13;;;;;;;11.19;58.25;95493.47;4969987;28;20174;-68
2024/03/23 02:37:50;;;;;;;6.70;5.30;;;;;;;11.02;58.16;95495.34;4969067;28;20261;-69
2024/03/23 02:40:16;;;;;;;6.97;6.27;;;;;;;11.11;58.09;95491.31;4999212;28;20268;-67
2024/03/23 02:42:42;;;;;;;15.47;6.90;;;;;;;11.26;57.63;95484.28;4969133;28;20537;-68
2024/03/23 02:45:07;;;;;;;7.40;6.60;;;;;;;11.11;58.07;95483.44;4965955;28;20537;-69
2024/03/23 02:47:33;;;;;;;12.53;5.93;;;;;;;11.23;57.95;95479.22;4963310;28;20276;-66
2024/03/23 02:49:58;;;;;;;7.73;6.47;;;;;;;11.25;57.93;95472.09;4960737;28;20595;-67
2024/03/23 02:52:24;;;;;;;6.23;5.70;;;;;;;11.21;57.94;95465.34;4968340;28;20605;-68
2024/03/23 02:54:49;;;;;;;7.40;6.70;;;;;;;11.22;58.08;95451.28;4969276;28;20229;-68
2024/03/23 02:57:15;;;;;;;6.83;6.20;;;;;;;11.33;57.58;95448.00;4970241;28;20213;-70
2024/03/23 02:59:40;;;;;;;6.30;5.57;;;;;;;11.32;57.77;95441.91;5000595;28;20209;-68
2024/03/23 03:02:06;;;;;;;6.17;5.53;;;;;;;11.29;58.27;95449.09;4969101;28;20973;-67
2024/03/23 03:04:32;;;;;;;6.33;5.60;;;;;;;11.28;57.47;95445.66;4953447;28;20334;-68
2024/03/23 03:06:58;;;;;;;5.87;5.30;;;;;;;11.19;57.60;95433.91;4967096;28;20607;-69
2024/03/23 03:09:23;;;;;;;8.03;5.47;;;;;;;11.36;57.83;95443.41;4970471;28;20460;-71
2024/03/23 03:11:49;;;;;;;6.20;5.60;;;;;;;11.36;57.39;95438.16;4970226;28;20255;-67
2024/03/23 03:14:14;;;;;;;8.30;6.13;;;;;;;11.23;57.95;95440.69;4972593;28;20244;-68
2024/03/23 03:16:40;;;;;;;7.53;5.77;;;;;;;11.33;57.37;95426.97;4980058;28;20333;-67
2024/03/23 03:19:06;;;;;;;9.00;5.13;;;;;;;11.31;57.79;95427.06;4957427;28;20694;-67
2024/03/23 03:21:32;;;;;;;6.87;5.00;;;;;;;11.21;57.78;95411.03;4951156;28;20645;-68
2024/03/23 03:23:57;;;;;;;6.83;5.37;;;;;;;11.38;57.97;95424.91;4961099;28;20469;-66
2024/03/23 03:26:23;;;;;;;6.30;5.67;;;;;;;11.35;58.33;95436.44;4970613;28;20413;-70
2024/03/23 03:28:49;;;;;;;9.30;5.13;;;;;;;11.50;58.01;95436.41;4970211;28;20248;-67
2024/03/23 03:31:18;;;;;;;6.33;5.73;;;;;;;11.26;57.59;95425.66;4970027;28;20624;-67
2024/03/23 03:33:44;;;;;;;6.40;5.63;;;;;;;11.29;58.29;95418.47;4969454;28;20257;-68
2024/03/23 03:36:10;;;;;;;6.40;4.80;;;;;;;11.38;57.73;95417.84;4967694;28;20528;-68
2024/03/23 03:38:35;;;;;;;5.90;5.20;;;;;;;11.37;57.78;95415.34;4984865;28;20935;-68
2024/03/23 03:41:01;;;;;;;5.90;4.73;;;;;;;11.33;57.84;95416.47;4948866;28;20174;-69
2024/03/23 03:43:27;;;;;;;7.17;5.27;;;;;;;11.37;58.05;95412.72;4946965;28;20650;-67
2024/03/23 03:45:54;;;;;;;8.33;5.60;;;;;;;11.39;58.18;95405.59;4953786;28;20444;-68
2024/03/23 03:48:19;;;;;;;9.30;5.83;;;;;;;11.30;58.18;95404.38;4967811;28;20198;-69
2024/03/23 03:50:45;;;;;;;7.33;5.00;;;;;;;11.31;58.33;95405.22;4968315;28;20424;-68
2024/03/23 03:53:11;;;;;;;6.13;5.60;;;;;;;11.31;57.94;95400.78;4967665;28;20179;-68
2024/03/23 03:55:36;;;;;;;7.40;6.63;;;;;;;11.35;58.07;95393.59;4967529;28;20201;-69
2024/03/23 03:58:02;;;;;;;8.00;6.73;;;;;;;11.32;58.43;95391.16;4968275;28;20540;-68
2024/03/23 04:00:27;;;;;;;9.57;5.43;;;;;;;11.43;58.17;95388.66;4967918;28;20649;-67
2024/03/23 04:02:53;;;;;;;6.70;5.00;;;;;;;11.48;58.00;95386.63;4967549;28;20598;-69
2024/03/23 04:05:19;;;;;;;6.90;6.03;;;;;;;11.40;58.44;95376.56;4966513;28;20219;-67
2024/03/23 04:07:45;;;;;;;7.73;5.97;;;;;;;11.55;58.26;95381.78;4967117;28;20197;-70
2024/03/23 04:10:11;;;;;;;6.70;5.43;;;;;;;11.42;58.73;95373.88;4973632;28;20471;-68
2024/03/23 04:12:36;;;;;;;6.00;5.40;;;;;;;11.54;57.82;95372.25;4967546;28;20190;-69
2024/03/23 04:15:04;;;;;;;6.07;4.73;;;;;;;11.45;58.34;95360.53;4968170;28;20232;-68
2024/03/23 04:17:34;;;;;;;5.43;4.93;;;;;;;11.50;58.15;95366.31;4967746;28;20521;-69
2024/03/23 04:20:00;;;;;;;6.40;4.77;;;;;;;11.54;58.27;95352.06;4961048;28;20917;-68
2024/03/23 04:22:26;;;;;;;6.73;4.40;;;;;;;11.58;57.55;95350.94;4967095;28;20578;-68
2024/03/23 04:24:57;;;;;;;6.20;4.03;;;;;;;11.58;58.13;95355.34;4967838;28;20464;-70
2024/03/23 04:27:23;;;;;;;11.20;4.90;;;;;;;11.74;58.15;95353.41;4967858;28;20925;-68
2024/03/23 04:29:50;;;;;;;5.77;5.17;;;;;;;11.56;58.30;95334.41;4966593;28;20468;-68
2024/03/23 04:32:15;;;;;;;9.20;5.73;;;;;;;11.53;58.30;95344.28;4963251;28;20554;-66
2024/03/23 04:34:41;;;;;;;7.57;5.30;;;;;;;11.44;58.74;95340.47;4967486;28;20417;-68
2024/03/23 04:37:07;;;;;;;7.03;5.00;;;;;;;11.33;58.69;95332.41;4967885;28;20193;-68
2024/03/23 04:39:33;;;;;;;7.37;5.10;;;;;;;11.32;58.81;95338.63;4967446;28;21144;-69
2024/03/23 04:41:58;;;;;;;10.03;6.30;;;;;;;11.22;59.55;95327.88;4966727;28;20264;-69
2024/03/23 04:44:24;;;;;;;8.50;5.10;;;;;;;11.33;59.32;95332.41;4967214;28;20460;-69
2024/03/23 04:46:49;;;;;;;6.40;4.93;;;;;;;11.30;59.49;95327.38;4967124;28;20185;-67
2024/03/23 04:49:15;;;;;;;7.03;6.17;;;;;;;10.71;61.53;95323.16;4967476;28;20197;-68
2024/03/23 04:51:45;;;;;;;9.33;5.70;;;;;;;11.01;60.72;95314.31;4967532;28;20188;-67
2024/03/23 04:54:11;;;;;;;6.50;5.03;;;;;;;11.15;60.30;95300.28;4962909;28;20182;-70
2024/03/23 04:56:36;;;;;;;8.37;6.33;;;;;;;11.09;60.35;95298.91;4967824;28;20444;-67
2024/03/23 04:59:04;;;;;;;7.70;6.03;;;;;;;11.17;59.74;95285.28;4967857;28;20661;-69
2024/03/23 05:01:30;;;;;;;8.27;5.60;;;;;;;11.02;59.95;95293.19;4969318;28;20189;-69
2024/03/23 05:03:57;;;;;;;7.10;5.93;;;;;;;11.05;60.59;95281.66;4970491;28;20468;-69
2024/03/23 05:06:22;;;;;;;6.77;4.63;;;;;;;11.10;60.05;95279.59;4970794;28;20412;-70
2024/03/23 05:08:48;;;;;;;8.87;6.00;;;;;;;11.02;60.85;95271.34;4969994;28;20433;-68
2024/03/23 05:11:13;;;;;;;5.40;4.87;;;;;;;10.86;61.22;95273.25;4974949;28;20193;-70
2024/03/23 05:13:38;;;;;;;10.40;7.40;;;;;;;11.04;60.17;95261.59;4972180;28;20233;-70
2024/03/23 05:16:04;;;;;;;5.97;5.47;;;;;;;10.95;61.04;95259.56;4971631;28;20189;-67
2024/03/23 05:18:30;;;;;;;8.10;5.27;;;;;;;11.01;61.44;95252.16;4970028;28;20267;-70
2024/03/23 05:20:59;;;;;;;7.37;5.70;;;;;;;10.98;60.61;95251.47;4964072;28;20182;-68
2024/03/23 05:23:28;;;;;;;6.93;5.53;;;;;;;11.02;60.74;95256.44;4969479;28;20437;-68
2024/03/23 05:25:53;;;;;;;6.30;5.40;;;;;;;10.93;60.88;95246.53;4966941;28;20496;-68
2024/03/23 05:28:19;;;;;;;6.53;5.50;;;;;;;11.13;60.50;95240.00;4973433;28;20445;-69
2024/03/23 05:30:50;;;;;;;9.50;5.27;;;;;;;11.07;60.90;95245.66;4970477;28;20192;-69
2024/03/23 05:33:15;;;;;;;7.23;5.60;;;;;;;11.08;61.26;95236.84;4973464;28;20243;-68
2024/03/23 05:35:41;;;;;;;10.40;5.40;;;;;;;11.23;60.69;95233.22;4969309;28;21210;-69
2024/03/23 05:38:06;;;;;;;11.93;6.60;;;;;;;11.45;59.88;95223.91;4963600;28;20301;-68
2024/03/23 05:40:31;;;;;;;8.43;5.20;;;;;;;11.98;58.01;95213.41;4969999;28;20174;-68
2024/03/23 05:42:57;;;;;;;7.67;6.00;;;;;;;12.26;57.47;95218.47;4970863;28;20220;-68
2024/03/23 05:45:22;;;;;;;7.43;5.27;;;;;;;12.00;57.97;95233.41;4966778;28;20197;-68
2024/03/23 05:47:48;;;;;;;10.30;5.53;;;;;;;11.83;59.09;95238.91;4974734;28;20185;-68
2024/03/23 05:50:14;;;;;;;9.80;5.77;;;;;;;11.88;58.28;95239.47;4981529;28;20308;-68
2024/03/23 05:52:40;;;;;;;6.03;5.00;;;;;;;11.88;59.16;95244.72;4979555;28;20480;-67
2024/03/23 05:55:06;;;;;;;8.67;6.13;;;;;;;11.57;59.75;95223.09;4973360;28;20189;-65
2024/03/23 05:57:32;;;;;;;7.73;6.00;;;;;;;11.46;60.68;95238.75;4974544;28;20193;-64
2024/03/23 05:59:57;;;;;;;9.50;6.40;;;;;;;11.35;61.35;95228.09;4974963;28;20541;-66
2024/03/23 06:02:24;;;;;;;5.83;5.17;;;;;;;11.56;61.23;95223.22;4974845;28;20186;-66
2024/03/23 06:04:49;;;;;;;5.90;5.30;;;;;;;11.36;61.83;95206.13;4976447;28;20201;-68
2024/03/23 06:07:15;;;;;;;7.03;5.20;;;;;;;11.25;63.71;95206.03;4975104;28;20437;-66
2024/03/23 06:09:41;;;;;;;9.30;6.03;;;;;;;11.09;65.24;95207.00;4974654;28;20209;-66
2024/03/23 06:12:07;;;;;;;14.07;6.53;;;;;;;11.08;65.45;95200.09;4976846;28;20182;-71
2024/03/23 06:14:34;;;;;;;6.43;5.20;;;;;;;11.19;63.98;95188.88;4970498;28;20510;-70
2024/03/23 06:17:00;;;;;;;8.30;5.20;;;;;;;11.51;63.06;95197.25;4976528;28;20456;-68
2024/03/23 06:19:29;;;;;;;7.07;6.33;;;;;;;11.20;65.11;95187.94;4957650;28;20468;-68
2024/03/23 06:21:54;;;;;;;7.57;5.57;;;;;;;11.27;64.34;95212.00;4970002;28;20440;-68
2024/03/23 06:24:22;;;;;;;9.60;5.27;;;;;;;11.16;65.25;95221.44;4970916;28;20464;-70
2024/03/23 06:26:48;;;;;;;6.40;5.77;;;;;;;11.09;65.33;95232.44;4982275;28;20193;-66
2024/03/23 06:29:13;;;;;;;6.37;5.77;;;;;;;11.15;64.90;95253.88;4971531;28;20453;-68
2024/03/23 06:31:39;;;;;;;8.03;5.13;;;;;;;11.21;65.84;95273.66;4970677;28;20192;-66
2024/03/23 06:34:05;;;;;;;7.60;6.70;;;;;;;11.35;65.67;95326.13;4984015;28;20178;-66
2024/03/23 06:36:30;;;;;;;8.60;6.07;;;;;;;11.39;67.76;95337.28;4975879;28;20274;-65
2024/03/23 06:38:56;;;;;;;11.23;5.93;;;;;;;11.33;68.86;95324.53;5010797;28;20455;-68
2024/03/23 06:41:23;;;;;;;4.83;3.60;;;;;;;11.48;69.31;95335.84;4982255;28;20812;-67
2024/03/23 06:43:48;;;;;;;3.80;2.80;;;;;;;11.53;67.92;95349.53;4970123;28;20315;-70
2024/03/23 06:46:13;;;;;;;3.20;2.50;;;;;;;11.45;68.44;95361.38;4971037;28;20928;-70
2024/03/23 06:48:39;;;;;;;4.50;2.10;;;;;;;11.47;68.14;95349.94;4971306;28;20208;-66
2024/03/23 06:51:04;;;;;;;3.07;2.20;;;;;;;11.37;68.69;95353.13;4975135;28;20205;-68
2024/03/23 06:53:30;;;;;;;5.97;2.00;;;;;;;11.48;68.22;95352.47;4968824;28;20285;-69
2024/03/23 07:03:25;;;;;;;2.87;1.80;;;;;;;11.30;68.27;95353.63;4973786;28;20480;-68
2024/03/23 07:06:47;;;;;;;3.03;2.20;;;;;;;11.29;68.58;95352.81;4990316;28;20436;-64
2024/03/23 07:12:57;;;;;;;3.43;2.33;;;;;;;11.52;67.26;95359.19;5002626;28;20432;-65
2024/03/23 07:19:28;;;;;;;3.00;2.00;;;;;;;11.39;65.68;95361.78;4989563;28;20501;-64
2024/03/23 07:25:59;;;;;;;3.17;2.70;;;;;;;11.54;65.55;95372.25;4993479;28;20604;-64
2024/03/23 07:28:25;;;;;;;3.00;2.70;;;;;;;11.61;65.17;95392.75;4990728;28;20449;-68
2024/03/23 07:31:31;;;;;;;3.93;2.37;;;;;;;11.43;65.62;95397.41;4988827;28;20416;-65
2024/03/23 07:34:17;;;;;;;6.10;3.10;;;;;;;11.37;66.96;95391.72;4990235;28;20440;-70
2024/03/23 07:37:10;;;;;;;3.57;2.60;;;;;;;11.35;67.56;95402.31;4980847;28;20437;-64
2024/03/23 07:39:35;;;;;;;3.87;2.37;;;;;;;11.40;67.06;95412.50;4953909;28;20225;-68
2024/03/23 07:42:02;;;;;;;2.30;1.90;;;;;;;11.46;66.26;95422.66;4966645;28;20562;-70
2024/03/23 07:44:27;;;;;;;7.50;3.60;;;;;;;11.31;67.52;95429.69;4968001;28;20213;-69
2024/03/23 07:46:53;;;;;;;4.90;3.10;;;;;;;11.41;66.96;95432.59;4966921;28;20792;-69
2024/03/23 07:49:18;;;;;;;4.80;3.27;;;;;;;11.50;66.27;95431.16;4968071;28;20280;-69
2024/03/23 07:51:44;;;;;;;6.57;2.83;;;;;;;11.66;64.12;95435.34;4968551;28;20539;-69
2024/03/23 07:54:10;;;;;;;3.00;2.23;;;;;;;11.63;62.60;95443.44;4968040;28;20170;-68
2024/03/23 07:56:35;;;;;;;5.17;2.00;;;;;;;11.54;62.14;95445.81;4968293;28;20420;-67
2024/03/23 07:59:03;;;;;;;3.90;2.00;;;;;;;11.52;61.25;95453.78;4968102;28;20200;-69
2024/03/23 08:01:28;;;;;;;2.70;1.87;;;;;;;11.35;61.44;95454.84;4968654;28;20304;-69
2024/03/23 08:03:54;;;;;;;1.80;1.57;;;;;;;11.37;60.09;95462.63;4968753;28;21179;-70
2024/03/23 08:06:22;;;;;;;1.57;1.17;;;;;;;11.08;60.64;95467.03;4969611;28;20196;-70
2024/03/23 08:08:53;;;;;;;2.33;1.30;;;;;;;11.21;60.58;95470.59;4970464;28;20232;-70
2024/03/23 08:11:18;;;;;;;3.90;1.27;;;;;;;11.20;59.53;95467.13;4970245;28;21067;-68
2024/03/23 08:13:45;;;;;;;2.07;1.00;;;;;;;11.18;59.88;95486.56;4971952;28;20401;-70
2024/03/23 08:16:11;;;;;;;2.93;1.20;;;;;;;11.19;59.77;95481.19;4973536;28;20181;-70
2024/03/23 08:18:36;;;;;;;2.30;1.27;;;;;;;11.25;59.60;95497.53;4972305;28;20462;-70
2024/03/23 08:21:03;;;;;;;3.20;1.30;;;;;;;11.15;60.27;95492.84;4969944;28;20409;-69
2024/03/23 08:23:30;;;;;;;3.60;1.40;;;;;;;11.25;59.73;95502.78;4969545;28;20188;-70
2024/03/23 08:26:00;;;;;;;1.20;1.00;;;;;;;11.15;59.71;95511.22;4968644;28;20409;-69
2024/03/23 08:28:26;;;;;;;1.30;1.00;;;;;;;11.41;59.16;95511.41;4968032;28;20579;-69
2024/03/23 08:30:56;;;;;;;1.80;1.03;;;;;;;11.42;60.34;95523.59;4967598;28;20413;-69
2024/03/23 08:33:23;;;;;;;10.83;3.00;;;;;;;11.57;58.58;95527.06;4967221;28;20413;-68
2024/03/23 08:35:58;;;;;;;1.37;1.00;;;;;;;11.51;58.56;95525.66;4967738;28;20943;-69
2024/03/23 08:38:24;;;;;;;1.67;0.93;;;;;;;11.55;57.74;95527.19;4967677;28;20974;-69
2024/03/23 08:41:09;;;;;;;2.47;0.77;;;;;;;11.34;57.31;95538.97;4967524;28;20427;-68
2024/03/23 08:43:40;;;;;;;3.23;1.17;;;;;;;11.32;57.80;95551.38;4967466;28;20412;-69
2024/03/23 08:46:06;;;;;;;1.37;0.90;;;;;;;11.31;56.75;95554.94;4967166;28;20417;-68
2024/03/23 08:48:35;;;;;;;3.00;1.20;;;;;;;11.32;57.17;95560.09;4967073;28;20520;-69
2024/03/23 08:51:08;;;;;;;1.50;1.10;;;;;;;11.17;57.60;95564.50;4970029;28;20983;-70
2024/03/23 08:53:34;;;;;;;1.53;0.93;;;;;;;11.45;57.26;95575.94;4970984;28;20905;-70
2024/03/23 08:56:01;;;;;;;1.30;1.17;;;;;;;11.75;55.18;95578.50;4971291;28;20444;-69
2024/03/23 08:58:27;;;;;;;2.23;1.17;;;;;;;11.70;56.94;95590.25;4970766;28;20447;-69
2024/03/23 09:00:57;;;;;;;1.73;1.10;;;;;;;11.63;55.63;95590.59;4970790;28;20405;-69
2024/03/23 09:03:25;;;;;;;9.33;1.37;;;;;;;11.36;56.50;95616.78;4970760;28;21256;-69
2024/03/23 09:05:52;;;;;;;7.03;1.20;;;;;;;11.22;58.61;95607.09;4971561;28;20475;-69
2024/03/23 09:08:18;;;;;;;2.80;1.17;;;;;;;11.16;59.09;95638.09;4972191;28;20837;-69
2024/03/23 09:10:43;;;;;;;1.40;1.00;;;;;;;11.02;60.08;95639.75;4972007;28;20427;-70
2024/03/23 09:13:09;;;;;;;1.20;0.80;;;;;;;10.96;59.84;95647.13;4970042;28;20428;-69
2024/03/23 09:15:46;;;;;;;1.40;0.90;;;;;;;10.99;59.08;95665.34;4972025;28;20180;-69
2024/03/23 09:18:11;;;;;;;1.90;1.03;;;;;;;10.99;57.71;95671.44;4971946;28;20212;-69
2024/03/23 09:20:37;;;;;;;1.83;1.27;;;;;;;10.86;59.05;95659.09;4971788;28;20448;-68
2024/03/23 09:23:02;;;;;;;1.90;1.10;;;;;;;10.93;57.41;95663.91;4970845;28;20545;-67
2024/03/23 09:25:27;;;;;;;3.30;1.13;;;;;;;11.05;55.94;95670.22;4972046;28;20206;-69
2024/03/23 09:27:53;;;;;;;1.70;1.20;;;;;;;11.00;54.79;95680.16;4972467;28;20178;-70
2024/03/23 09:30:19;;;;;;;1.90;1.13;;;;;;;11.01;54.71;95679.22;4972036;28;20236;-70
2024/03/23 09:32:45;;;;;;;6.30;1.23;;;;;;;11.10;54.34;95673.44;4971897;28;20538;-69
2024/03/23 09:35:10;;;;;;;1.50;1.13;;;;;;;11.60;52.69;95676.69;4971579;28;20420;-70
2024/03/23 09:37:36;;;;;;;4.70;1.90;;;;;;;11.95;52.63;95665.84;4971905;28;20784;-67
2024/03/23 09:40:03;;;;;;;2.70;1.37;;;;;;;12.46;52.63;95669.66;4971105;28;20208;-69
2024/03/23 09:42:28;;;;;;;5.40;1.50;;;;;;;12.84;50.97;95655.81;4971258;28;20207;-71
2024/03/23 09:44:57;;;;;;;3.00;1.33;;;;;;;12.55;48.60;95662.13;4971802;28;20468;-69
2024/03/23 09:47:24;;;;;;;3.10;1.37;;;;;;;11.89;49.58;95666.22;4971379;28;20182;-70
2024/03/23 09:49:50;;;;;;;5.10;1.33;;;;;;;12.21;50.02;95666.84;4971401;28;20433;-70
2024/03/23 09:52:15;;;;;;;2.87;1.40;;;;;;;12.37;49.29;95666.75;4971299;28;21290;-69
2024/03/23 09:54:41;;;;;;;2.70;1.40;;;;;;;12.52;48.50;95655.28;4971452;28;20260;-68
2024/03/23 09:57:06;;;;;;;4.03;2.10;;;;;;;12.44;48.87;95662.78;4971920;28;20169;-69
2024/03/23 09:59:34;;;;;;;4.10;1.87;;;;;;;12.18;48.67;95653.91;4969400;28;20605;-68
2024/03/23 10:02:01;;;;;;;5.83;2.77;;;;;;;12.34;48.04;95651.16;4970196;28;20177;-69
2024/03/23 10:04:40;;;;;;;8.87;2.67;;;;;;;12.43;47.97;95629.53;4970899;28;20496;-69
2024/03/23 10:07:18;;;;;;;2.70;1.70;;;;;;;12.57;47.39;95640.03;4970831;28;20498;-69
2024/03/23 10:09:44;;;;;;;8.00;2.30;;;;;;;12.90;45.29;95602.78;4969938;28;20447;-67
2024/03/23 10:12:14;;;;;;;3.33;2.10;;;;;;;13.28;43.10;95596.75;4969905;28;20417;-69
2024/03/23 10:14:40;;;;;;;3.17;1.80;;;;;;;12.89;42.53;95601.06;4969980;28;20841;-68
2024/03/23 10:17:18;;;;;;;7.00;2.10;;;;;;;13.04;42.64;95612.41;4971402;28;20500;-68
2024/03/23 10:19:45;;;;;;;3.40;2.27;;;;;;;12.63;43.49;95621.19;4970833;28;20547;-68
2024/03/23 10:22:14;;;;;;;3.37;1.73;;;;;;;12.26;44.09;95634.06;4971171;28;20412;-69
2024/03/23 10:24:40;;;;;;;1.97;1.60;;;;;;;12.18;45.38;95632.84;4968846;28;20469;-69
2024/03/23 10:27:05;;;;;;;3.87;2.90;;;;;;;12.19;44.37;95629.28;4970349;28;20427;-69
2024/03/23 10:29:31;;;;;;;5.27;2.67;;;;;;;11.59;43.68;95654.78;4970705;28;20197;-69
2024/03/23 10:32:08;;;;;;;2.30;1.70;;;;;;;11.73;43.17;95661.84;4970157;28;20188;-68
2024/03/23 10:34:35;;;;;;;6.53;2.40;;;;;;;11.68;43.93;95690.19;4969409;28;20195;-68
2024/03/23 10:37:03;;;;;;;4.30;2.93;;;;;;;11.55;45.05;95705.84;4970116;28;20459;-68
2024/03/23 10:39:32;;;;;;;4.27;2.20;;;;;;;11.21;44.87;95702.53;4968951;28;20528;-68
2024/03/23 10:42:00;;;;;;;2.60;2.40;;;;;;;11.45;44.84;95715.19;4969584;28;20429;-68
2024/03/23 10:44:29;;;;;;;3.13;2.20;;;;;;;11.39;44.08;95720.81;4970107;28;20461;-69
2024/03/23 10:46:58;;;;;;;6.30;3.70;;;;;;;11.21;45.98;95723.56;4970740;28;20465;-67
2024/03/23 10:49:26;;;;;;;3.47;2.40;;;;;;;11.35;45.01;95725.38;4969046;28;20488;-69
2024/03/23 10:51:52;;;;;;;6.50;3.90;;;;;;;11.49;45.45;95736.91;4970461;28;20479;-69
2024/03/23 10:54:18;;;;;;;12.60;3.70;;;;;;;11.34;45.84;95734.22;4970383;28;20413;-69
2024/03/23 10:56:46;;;;;;;5.53;3.30;;;;;;;11.62;44.52;95732.59;4970727;28;20975;-71
2024/03/23 10:59:12;;;;;;;4.10;2.90;;;;;;;11.49;45.21;95710.63;4968927;28;21027;-66
2024/03/23 11:01:57;;;;;;;8.50;3.50;;;;;;;11.54;45.40;95709.41;4969996;28;20409;-70
2024/03/23 11:04:32;;;;;;;6.97;2.97;;;;;;;11.34;46.52;95714.97;4968524;28;21077;-70
2024/03/23 11:06:58;;;;;;;5.00;3.30;;;;;;;11.42;46.13;95718.84;4970543;28;20844;-68
2024/03/23 11:09:39;;;;;;;7.00;3.60;;;;;;;11.53;46.24;95727.91;4969851;28;20431;-70
2024/03/23 11:12:23;;;;;;;4.90;3.13;;;;;;;11.54;45.16;95735.69;4969125;28;20409;-68
2024/03/23 11:14:50;;;;;;;7.27;3.20;;;;;;;11.51;45.50;95738.50;4969421;28;20455;-70
2024/03/23 11:17:23;;;;;;;7.67;3.07;;;;;;;11.40;45.03;95730.38;4970088;28;20443;-68
2024/03/23 11:19:59;;;;;;;4.03;2.97;;;;;;;11.57;44.22;95729.41;4971046;28;20790;-70
2024/03/23 11:22:37;;;;;;;17.43;3.10;;;;;;;11.66;44.80;95720.97;4973746;28;20484;-69
2024/03/23 11:25:02;;;;;;;14.07;3.37;;;;;;;11.68;44.34;95732.25;4972435;28;20456;-69
2024/03/23 11:27:28;;;;;;;4.83;2.70;;;;;;;11.63;42.95;95742.19;4971255;28;20431;-69
2024/03/23 11:29:53;;;;;;;7.07;2.70;;;;;;;11.53;43.69;95726.13;4971382;28;20194;-69
2024/03/23 11:32:19;;;;;;;4.53;3.00;;;;;;;11.72;42.53;95717.16;4971751;28;20196;-68
2024/03/23 11:34:44;;;;;;;5.27;3.30;;;;;;;11.67;40.81;95714.78;4969490;28;20653;-68
2024/03/23 11:37:09;;;;;;;7.70;2.80;;;;;;;11.68;39.88;95707.75;4969684;28;20195;-70
2024/03/23 11:39:35;;;;;;;7.80;5.70;;;;;;;12.33;38.40;95700.31;4968439;28;20209;-69
2024/03/23 11:42:00;;;;;;;4.27;3.33;;;;;;;12.31;37.79;95709.22;4968470;28;20724;-69
2024/03/23 11:44:26;;;;;;;7.23;5.00;;;;;;;12.11;37.52;95707.81;4969026;28;20201;-68
2024/03/23 11:46:52;;;;;;;6.73;2.93;;;;;;;12.24;37.75;95700.88;4968714;28;20265;-69
2024/03/23 11:49:28;;;;;;;6.27;2.80;;;;;;;12.31;36.94;95706.59;4968644;28;20512;-68
2024/03/23 11:51:55;;;;;;;17.50;5.13;;;;;;;12.16;36.77;95692.59;4968618;28;20564;-68